createdAt,value
2022-10-04T00:02:04.245Z,13.03
2022-10-04T00:05:04.888Z,12.73
2022-10-04T00:07:45.671Z,15.20
2022-10-04T00:10:35.071Z,13.60
2022-10-04T00:13:16.167Z,12.07
2022-10-04T00:15:49.637Z,13.23
2022-10-04T00:18:29.627Z,12.53
2022-10-04T00:21:03.975Z,11.57
2022-10-04T00:24:10.044Z,14.80
2022-10-04T00:26:50.773Z,12.53
2022-10-04T00:29:28.398Z,16.60
2022-10-04T00:32:12.124Z,11.10
2022-10-04T00:34:50.139Z,11.97
2022-10-04T00:37:20.751Z,15.57
2022-10-04T00:40:03.986Z,14.43
2022-10-04T00:42:44.603Z,11.07
2022-10-04T00:45:17.802Z,12.07
2022-10-04T00:47:49.154Z,12.53
2022-10-04T00:50:36.233Z,14.07
2022-10-04T00:53:13.854Z,12.77
2022-10-04T00:55:53.634Z,13.73
2022-10-04T00:58:35.866Z,13.03
2022-10-04T01:01:05.952Z,12.30
2022-10-04T01:03:45.827Z,13.00
2022-10-04T01:06:16.020Z,14.13
2022-10-04T01:08:55.327Z,13.63
2022-10-04T01:11:36.510Z,14.20
2022-10-04T01:14:15.380Z,12.37
2022-10-04T01:16:43.916Z,17.63
2022-10-04T01:19:27.299Z,13.33
2022-10-04T01:22:06.951Z,11.50
2022-10-04T01:24:40.883Z,13.33
2022-10-04T01:27:34.248Z,13.10
2022-10-04T01:30:05.610Z,13.73
2022-10-04T01:32:34.139Z,16.33
2022-10-04T01:35:02.910Z,13.03
2022-10-04T01:37:31.476Z,21.80
2022-10-04T01:40:00.154Z,14.77
2022-10-04T01:42:37.702Z,13.17
2022-10-04T01:45:15.824Z,14.10
2022-10-04T01:47:58.335Z,12.23
2022-10-04T01:50:40.773Z,13.03
2022-10-04T01:53:30.925Z,11.63
2022-10-04T01:56:08.650Z,13.43
2022-10-04T01:58:51.606Z,11.67
2022-10-04T02:01:36.713Z,12.63
2022-10-04T02:04:17.446Z,15.30
2022-10-04T02:06:54.964Z,15.27
2022-10-04T02:09:34.729Z,12.87
2022-10-04T02:12:03.633Z,15.27
2022-10-04T02:14:35.266Z,13.73
2022-10-04T02:17:11.217Z,19.40
2022-10-04T02:19:43.159Z,14.93
2022-10-04T02:22:12.635Z,17.63
2022-10-04T02:24:45.932Z,15.40
2022-10-04T02:27:14.730Z,18.93
2022-10-04T02:29:43.167Z,14.43
2022-10-04T02:32:30.615Z,14.00
2022-10-04T02:34:59.301Z,13.70
2022-10-04T02:37:29.674Z,16.50
2022-10-04T02:40:07.591Z,14.53
2022-10-04T02:42:50.013Z,17.20
2022-10-04T02:45:34.277Z,13.77
2022-10-04T02:48:19.383Z,15.53
2022-10-04T02:50:52.819Z,13.33
2022-10-04T02:54:02.384Z,15.90
2022-10-04T02:56:32.545Z,15.10
2022-10-04T02:59:08.483Z,12.97
2022-10-04T03:02:00.576Z,14.60
2022-10-04T03:04:38.823Z,15.53
2022-10-04T03:07:10.455Z,12.50
2022-10-04T03:09:41.251Z,13.77
2022-10-04T03:12:13.634Z,14.27
2022-10-04T03:14:43.068Z,15.10
2022-10-04T03:17:12.483Z,14.40
2022-10-04T03:19:41.090Z,15.97
2022-10-04T03:22:12.348Z,18.10
2022-10-04T03:24:54.539Z,16.90
2022-10-04T03:27:29.831Z,14.10
2022-10-04T03:30:00.236Z,18.80
2022-10-04T03:32:31.358Z,16.20
2022-10-04T03:35:06.917Z,20.23
2022-10-04T03:37:38.858Z,15.50
2022-10-04T03:40:11.029Z,17.00
2022-10-04T03:42:40.540Z,14.10
2022-10-04T03:45:16.524Z,17.47
2022-10-04T03:47:49.309Z,19.53
2022-10-04T03:50:20.464Z,18.80
2022-10-04T03:52:55.521Z,16.50
2022-10-04T03:55:31.569Z,22.03
2022-10-04T03:58:01.385Z,14.87
2022-10-04T04:00:30.412Z,18.53
2022-10-04T04:03:06.946Z,14.67
2022-10-04T04:05:58.788Z,20.77
2022-10-04T04:08:29.942Z,15.93
2022-10-04T04:11:00.987Z,20.40
2022-10-04T04:13:37.133Z,14.93
2022-10-04T04:16:06.508Z,14.70
2022-10-04T04:18:38.474Z,17.10
2022-10-04T04:21:08.873Z,15.87
2022-10-04T04:23:41.664Z,15.10
2022-10-04T04:26:28.199Z,15.90
2022-10-04T04:29:18.990Z,15.47
2022-10-04T04:31:52.589Z,15.90
2022-10-04T04:34:31.326Z,18.87
2022-10-04T04:37:04.432Z,17.13
2022-10-04T04:39:45.739Z,14.93
2022-10-04T04:42:20.039Z,15.03
2022-10-04T04:44:53.725Z,15.30
2022-10-04T04:47:45.350Z,16.17
2022-10-04T04:50:16.219Z,14.80
2022-10-04T04:53:05.620Z,15.87
2022-10-04T04:56:03.268Z,14.67
2022-10-04T04:58:38.415Z,14.87
2022-10-04T05:01:29.070Z,15.80
2022-10-04T05:04:16.662Z,13.90
2022-10-04T05:07:06.229Z,15.57
2022-10-04T05:09:36.960Z,16.77
2022-10-04T05:12:19.241Z,14.13
2022-10-04T05:14:55.712Z,15.40
2022-10-04T05:17:32.519Z,13.97
2022-10-04T05:20:04.010Z,13.57
2022-10-04T05:22:33.770Z,15.57
2022-10-04T05:25:11.386Z,14.57
2022-10-04T05:27:45.830Z,16.03
2022-10-04T05:31:06.553Z,15.40
2022-10-04T05:33:50.695Z,14.13
2022-10-04T05:36:40.957Z,14.20
2022-10-04T05:39:26.463Z,13.43
2022-10-04T05:42:18.036Z,12.73
2022-10-04T05:44:58.110Z,14.27
2022-10-04T05:47:31.873Z,13.30
2022-10-04T05:50:02.158Z,12.57
2022-10-04T05:52:40.507Z,11.30
2022-10-04T05:55:27.398Z,11.97
2022-10-04T05:58:30.102Z,10.63
2022-10-04T06:01:06.872Z,11.20
2022-10-04T06:04:17.457Z,9.50
2022-10-04T06:06:55.956Z,11.90
2022-10-04T06:09:37.359Z,11.97
2022-10-04T06:12:18.959Z,11.70
2022-10-04T06:15:14.717Z,12.10
2022-10-04T06:18:05.502Z,11.03
2022-10-04T06:21:04.778Z,9.93
2022-10-04T06:23:36.914Z,12.27
2022-10-04T06:26:12.251Z,11.70
2022-10-04T06:28:50.876Z,10.60
2022-10-04T06:31:44.756Z,10.43
2022-10-04T06:34:45.107Z,11.97
2022-10-04T06:37:16.507Z,9.93
2022-10-04T06:40:15.475Z,10.27
2022-10-04T06:42:52.729Z,10.43
2022-10-04T06:45:39.867Z,11.60
2022-10-04T06:48:33.764Z,12.03
2022-10-04T06:51:25.823Z,11.70
2022-10-04T06:54:04.324Z,12.17
2022-10-04T06:57:09.340Z,13.03
2022-10-04T06:59:53.406Z,12.47
2022-10-04T07:02:49.093Z,12.07
2022-10-04T07:05:17.559Z,10.77
2022-10-04T07:07:51.184Z,10.80
2022-10-04T07:10:33.445Z,10.30
2022-10-04T07:13:12.675Z,11.50
2022-10-04T07:16:28.598Z,11.23
2022-10-04T07:19:25.557Z,12.47
2022-10-04T07:22:09.469Z,12.80
2022-10-04T07:24:58.649Z,12.30
2022-10-04T07:28:17.587Z,12.00
2022-10-04T07:31:11.765Z,12.13
2022-10-04T07:33:51.120Z,12.73
2022-10-04T07:36:25.606Z,11.07
2022-10-04T07:39:07.747Z,13.60
2022-10-04T07:41:47.510Z,13.00
2022-10-04T07:44:43.958Z,12.67
2022-10-04T07:47:30.844Z,12.77
2022-10-04T07:49:59.537Z,13.40
2022-10-04T07:52:54.911Z,13.47
2022-10-04T07:55:43.756Z,13.77
2022-10-04T07:58:30.993Z,13.50
2022-10-04T08:01:02.407Z,12.57
2022-10-04T08:03:59.218Z,13.87
2022-10-04T08:06:53.435Z,11.43
2022-10-04T08:09:35.914Z,13.50
2022-10-04T08:12:27.074Z,10.60
2022-10-04T08:15:10.595Z,12.20
2022-10-04T08:17:42.553Z,11.60
2022-10-04T08:20:48.346Z,14.17
2022-10-04T08:23:42.488Z,11.77
2022-10-04T08:26:35.157Z,12.23
2022-10-04T08:29:36.974Z,11.20
2022-10-04T08:32:24.188Z,14.23
2022-10-04T08:35:28.798Z,12.47
2022-10-04T08:38:15.459Z,13.57
2022-10-04T08:41:06.833Z,11.27
2022-10-04T08:44:00.320Z,11.83
2022-10-04T08:46:53.873Z,14.20
2022-10-04T08:49:54.469Z,11.20
2022-10-04T08:52:53.267Z,12.27
2022-10-04T08:55:40.010Z,16.03
2022-10-04T08:58:37.946Z,16.43
2022-10-04T09:01:26.514Z,11.97
2022-10-04T09:04:16.158Z,13.43
2022-10-04T09:07:09.110Z,12.70
2022-10-04T09:10:14.413Z,12.10
2022-10-04T09:13:23.079Z,16.17
2022-10-04T09:16:17.941Z,11.90
2022-10-04T09:18:54.727Z,14.10
2022-10-04T09:21:36.366Z,12.27
2022-10-04T09:24:29.687Z,12.57
2022-10-04T09:27:57.489Z,11.87
2022-10-04T09:30:44.584Z,11.87
2022-10-04T09:33:37.413Z,13.47
2022-10-04T09:36:17.295Z,18.70
2022-10-04T09:39:05.881Z,11.40
2022-10-04T09:41:53.996Z,11.03
2022-10-04T09:44:46.932Z,15.23
2022-10-04T09:47:38.943Z,12.60
2022-10-04T09:50:11.801Z,14.20
2022-10-04T09:52:55.269Z,12.43
2022-10-04T09:55:44.917Z,19.47
2022-10-04T09:58:52.143Z,13.20
2022-10-04T10:01:30.352Z,12.40
2022-10-04T10:04:17.220Z,14.80
2022-10-04T10:07:15.790Z,12.90
2022-10-04T10:10:26.254Z,16.70
2022-10-04T10:13:41.049Z,12.93
2022-10-04T10:16:20.853Z,14.13
2022-10-04T10:19:07.866Z,18.67
2022-10-04T10:21:39.434Z,14.70
2022-10-04T10:24:34.731Z,18.13
2022-10-04T10:27:27.300Z,19.70
2022-10-04T10:33:07.638Z,18.03
2022-10-04T10:35:44.616Z,16.13
2022-10-04T10:38:41.109Z,15.53
2022-10-04T10:41:36.503Z,15.10
2022-10-04T10:44:40.114Z,18.23
2022-10-04T10:47:43.410Z,21.73
2022-10-04T10:50:28.142Z,18.67
2022-10-04T10:53:32.152Z,21.10
2022-10-04T10:56:47.130Z,16.77
2022-10-04T10:59:57.704Z,18.53
2022-10-04T11:02:50.476Z,17.50
2022-10-04T11:05:37.592Z,19.03
2022-10-04T11:08:37.468Z,18.43
2022-10-04T11:11:21.096Z,18.37
2022-10-04T11:14:24.790Z,14.83
2022-10-04T11:17:11.247Z,14.77
2022-10-04T11:20:16.869Z,14.73
2022-10-04T11:23:06.655Z,20.03
2022-10-04T11:26:11.514Z,17.43
2022-10-04T11:28:58.389Z,17.30
2022-10-04T11:31:56.732Z,18.83
2022-10-04T11:34:46.974Z,17.40
2022-10-04T11:37:44.977Z,22.07
2022-10-04T11:40:29.532Z,20.97
2022-10-04T11:43:09.206Z,22.70
2022-10-04T11:46:17.060Z,19.37
2022-10-04T11:49:00.912Z,26.73
2022-10-04T11:52:18.716Z,20.90
2022-10-04T11:55:22.022Z,23.07
2022-10-04T11:58:15.442Z,25.73
2022-10-04T12:01:17.697Z,23.67
2022-10-04T12:04:01.806Z,26.30
2022-10-04T12:06:51.686Z,25.47
2022-10-04T12:09:41.196Z,22.80
2022-10-04T12:12:40.473Z,23.80
2022-10-04T12:15:09.353Z,23.30
2022-10-04T12:18:08.446Z,29.33
2022-10-04T12:20:53.928Z,24.63
2022-10-04T12:23:46.788Z,30.40
2022-10-04T12:26:33.681Z,26.50
2022-10-04T12:29:20.350Z,30.67
2022-10-04T12:32:13.730Z,33.53
2022-10-04T12:35:09.872Z,31.40
2022-10-04T12:38:11.684Z,32.83
2022-10-04T12:41:01.686Z,35.10
2022-10-04T12:43:51.134Z,35.13
2022-10-04T12:46:27.661Z,36.70
2022-10-04T12:49:19.655Z,33.50
2022-10-04T12:51:59.288Z,36.07
2022-10-04T12:54:48.424Z,39.77
2022-10-04T12:57:16.782Z,39.57
2022-10-04T13:00:15.901Z,39.07
2022-10-04T13:02:55.602Z,28.60
2022-10-04T13:05:38.060Z,32.97
2022-10-04T13:08:18.000Z,32.80
2022-10-04T13:11:04.893Z,35.60
2022-10-04T13:13:39.465Z,42.97
2022-10-04T13:19:25.950Z,44.53
2022-10-04T13:22:03.533Z,34.57
2022-10-04T13:25:06.605Z,42.47
2022-10-04T13:28:08.753Z,37.83
2022-10-04T13:31:02.800Z,36.53
2022-10-04T13:34:06.695Z,45.27
2022-10-04T13:37:13.649Z,29.57
2022-10-04T13:39:57.273Z,36.90
2022-10-04T13:42:57.032Z,31.50
2022-10-04T13:45:48.643Z,36.10
2022-10-04T13:48:30.749Z,28.67
2022-10-04T13:51:35.663Z,28.00
2022-10-04T13:54:40.842Z,24.87
2022-10-04T13:57:12.304Z,25.97
2022-10-04T14:00:13.772Z,29.00
2022-10-04T14:03:10.050Z,44.77
2022-10-04T14:06:14.077Z,39.73
2022-10-04T14:09:03.717Z,34.53
2022-10-04T14:11:44.259Z,36.37
2022-10-04T14:14:50.838Z,48.40
2022-10-04T14:17:37.281Z,35.40
2022-10-04T14:20:33.016Z,40.40
2022-10-04T14:23:22.636Z,34.73
2022-10-04T14:26:00.106Z,41.83
2022-10-04T14:28:50.199Z,32.10
2022-10-04T14:31:39.622Z,40.37
2022-10-04T14:34:20.224Z,46.43
2022-10-04T14:37:21.287Z,42.30
2022-10-04T14:39:52.462Z,33.87
2022-10-04T14:42:50.126Z,37.63
2022-10-04T14:45:40.037Z,30.87
2022-10-04T14:48:43.689Z,34.97
2022-10-04T14:51:30.271Z,35.57
2022-10-04T14:54:27.693Z,40.00
2022-10-04T14:57:21.807Z,27.43
2022-10-04T15:00:25.092Z,32.57
2022-10-04T15:03:16.184Z,30.57
2022-10-04T15:06:07.268Z,33.43
2022-10-04T15:08:44.957Z,27.80
2022-10-04T15:11:34.264Z,37.60
2022-10-04T15:14:06.429Z,28.97
2022-10-04T15:16:59.021Z,29.70
2022-10-04T15:19:50.612Z,29.53
2022-10-04T15:22:25.373Z,31.90
2022-10-04T15:24:55.395Z,46.17
2022-10-04T15:27:36.020Z,31.30
2022-10-04T15:30:22.817Z,36.40
2022-10-04T15:33:07.268Z,32.40
2022-10-04T15:35:58.570Z,28.67
2022-10-04T15:38:39.709Z,36.23
2022-10-04T15:41:28.910Z,30.23
2022-10-04T15:44:06.749Z,30.33
2022-10-04T15:46:40.973Z,32.17
2022-10-04T15:49:16.364Z,28.60
2022-10-04T15:52:15.440Z,24.73
2022-10-04T15:55:11.536Z,27.80
2022-10-04T15:57:46.188Z,24.93
2022-10-04T16:00:16.443Z,21.57
2022-10-04T16:02:49.469Z,23.50
2022-10-04T16:05:42.696Z,27.63
2022-10-04T16:08:13.254Z,24.00
2022-10-04T16:11:01.174Z,23.13
2022-10-04T16:13:32.282Z,30.77
2022-10-04T16:16:20.141Z,21.20
2022-10-04T16:19:18.613Z,26.00
2022-10-04T16:22:09.929Z,28.10
2022-10-04T16:24:59.758Z,27.00
2022-10-04T16:27:30.939Z,24.30
2022-10-04T16:30:26.644Z,29.93
2022-10-04T16:33:06.940Z,34.70
2022-10-04T16:35:44.938Z,28.70
2022-10-04T16:38:24.691Z,23.03
2022-10-04T16:40:53.048Z,27.87
2022-10-04T16:43:21.336Z,23.37
2022-10-04T16:46:11.588Z,22.50
2022-10-04T16:48:49.368Z,24.50
2022-10-04T16:51:28.003Z,24.17
2022-10-04T16:54:34.731Z,22.90
2022-10-04T16:57:03.936Z,20.20
2022-10-04T16:59:55.224Z,25.70
2022-10-04T17:02:59.152Z,19.80
2022-10-04T17:05:49.925Z,16.53
2022-10-04T17:08:18.352Z,21.30
2022-10-04T17:10:46.785Z,19.20
2022-10-04T17:13:34.584Z,26.17
2022-10-04T17:16:27.611Z,25.80
2022-10-04T17:19:17.832Z,20.13
2022-10-04T17:22:18.933Z,21.10
2022-10-04T17:25:05.895Z,22.87
2022-10-04T17:27:57.405Z,24.93
2022-10-04T17:30:31.990Z,22.10
2022-10-04T17:33:27.867Z,19.67
2022-10-04T17:36:19.293Z,22.43
2022-10-04T17:38:55.391Z,21.23
2022-10-04T17:41:50.668Z,26.00
2022-10-04T17:44:25.695Z,31.00
2022-10-04T17:47:05.170Z,24.30
2022-10-04T17:50:22.475Z,22.00
2022-10-04T17:53:23.888Z,24.10
2022-10-04T17:55:56.786Z,18.90
2022-10-04T17:58:53.432Z,23.70
2022-10-04T18:01:55.664Z,25.47
2022-10-04T18:04:31.297Z,20.87
2022-10-04T18:07:12.877Z,23.80
2022-10-04T18:09:41.286Z,21.70
2022-10-04T18:12:14.638Z,23.40
2022-10-04T18:15:01.751Z,28.63
2022-10-04T18:17:36.068Z,28.90
2022-10-04T18:20:27.772Z,24.40
2022-10-04T18:23:03.838Z,21.60
2022-10-04T18:25:34.842Z,22.27
2022-10-04T18:28:09.313Z,20.67
2022-10-04T18:31:01.099Z,19.53
2022-10-04T18:33:44.430Z,23.90
2022-10-04T18:36:25.352Z,19.27
2022-10-04T18:39:20.383Z,19.93
2022-10-04T18:42:17.146Z,24.30
2022-10-04T18:45:03.676Z,24.30
2022-10-04T18:47:39.289Z,18.03
2022-10-04T18:50:47.768Z,21.83
2022-10-04T18:53:28.249Z,21.63
2022-10-04T18:56:04.327Z,22.70
2022-10-04T18:59:09.486Z,21.30
2022-10-04T19:02:22.667Z,22.00
2022-10-04T19:04:59.844Z,22.27
2022-10-04T19:07:47.286Z,19.73
2022-10-04T19:10:34.192Z,19.97
2022-10-04T19:13:11.716Z,20.30
2022-10-04T19:16:04.697Z,21.73
2022-10-04T19:19:15.680Z,24.27
2022-10-04T19:22:12.060Z,22.77
2022-10-04T19:25:01.894Z,25.50
2022-10-04T19:27:46.045Z,22.90
2022-10-04T19:30:23.561Z,20.53
2022-10-04T19:33:19.384Z,20.43
2022-10-04T19:35:54.720Z,21.13
2022-10-04T19:38:38.557Z,23.07
2022-10-04T19:41:22.216Z,22.00
2022-10-04T19:44:18.768Z,23.50
2022-10-04T19:47:24.266Z,24.87
2022-10-04T19:49:59.293Z,23.97
2022-10-04T19:52:45.006Z,20.67
2022-10-04T19:55:18.309Z,26.10
2022-10-04T19:57:51.368Z,25.30
2022-10-04T20:00:22.592Z,23.73
2022-10-04T20:02:51.256Z,22.70
2022-10-04T20:05:27.759Z,22.40
2022-10-04T20:08:07.049Z,22.23
2022-10-04T20:10:37.036Z,24.00
2022-10-04T20:13:25.721Z,25.13
2022-10-04T20:16:02.297Z,23.00
2022-10-04T20:18:33.644Z,24.80
2022-10-04T20:21:02.213Z,21.60
2022-10-04T20:23:39.996Z,21.03
2022-10-04T20:26:12.609Z,21.63
2022-10-04T20:28:43.212Z,23.00
2022-10-04T20:31:33.945Z,25.97
2022-10-04T20:34:24.993Z,23.57
2022-10-04T20:36:54.002Z,23.10
2022-10-04T20:39:41.278Z,26.60
2022-10-04T20:42:23.490Z,23.00
2022-10-04T20:45:08.907Z,24.57
2022-10-04T20:47:40.379Z,23.50
2022-10-04T20:50:35.794Z,26.17
2022-10-04T20:53:27.470Z,26.20
2022-10-04T20:56:20.561Z,22.80
2022-10-04T20:58:54.548Z,22.20
2022-10-04T21:01:38.020Z,22.43
2022-10-04T21:04:42.538Z,25.77
2022-10-04T21:07:15.935Z,28.47
2022-10-04T21:09:44.728Z,27.23
2022-10-04T21:12:37.421Z,24.67
2022-10-04T21:15:18.140Z,27.00
2022-10-04T21:18:01.756Z,25.97
2022-10-04T21:20:49.629Z,28.43
2022-10-04T21:23:50.360Z,24.43
2022-10-04T21:26:26.821Z,26.87
2022-10-04T21:28:59.417Z,24.63
2022-10-04T21:31:27.850Z,25.30
2022-10-04T21:33:56.208Z,30.00
2022-10-04T21:36:24.597Z,30.20
2022-10-04T21:38:55.018Z,28.20
2022-10-04T21:41:23.350Z,57.40
2022-10-04T21:43:51.741Z,28.97
2022-10-04T21:46:20.767Z,26.97
2022-10-04T21:48:49.352Z,22.50
2022-10-04T21:51:17.917Z,27.50
2022-10-04T21:53:46.268Z,24.10
2022-10-04T21:56:14.618Z,26.20
2022-10-04T21:58:43.042Z,26.57
2022-10-04T22:01:11.854Z,26.53
2022-10-04T22:03:40.260Z,26.10
2022-10-04T22:06:08.619Z,26.60
2022-10-04T22:08:36.965Z,28.87
2022-10-04T22:11:05.389Z,27.70
2022-10-04T22:13:33.861Z,25.47
2022-10-04T22:16:03.484Z,28.07
2022-10-04T22:18:33.110Z,27.63
2022-10-04T22:21:02.300Z,26.67
2022-10-04T22:23:39.084Z,27.10
2022-10-04T22:26:19.095Z,24.30
2022-10-04T22:28:52.755Z,26.90
2022-10-04T22:31:29.141Z,24.83
2022-10-04T22:33:58.130Z,25.50
2022-10-04T22:36:36.760Z,28.20
2022-10-04T22:39:11.146Z,28.50
2022-10-04T22:41:48.945Z,28.77
2022-10-04T22:44:23.418Z,25.00
2022-10-04T22:47:00.416Z,26.60
2022-10-04T22:49:34.342Z,25.17
2022-10-04T22:52:07.436Z,23.83
2022-10-04T22:54:36.794Z,25.67
2022-10-04T22:57:05.353Z,21.13
2022-10-04T22:59:41.000Z,21.80
2022-10-04T23:02:27.508Z,22.03
2022-10-04T23:04:59.404Z,22.90
2022-10-04T23:07:27.928Z,26.77
2022-10-04T23:09:56.289Z,19.97
2022-10-04T23:12:24.724Z,20.40
2022-10-04T23:14:53.049Z,19.17
2022-10-04T23:17:31.329Z,21.40
2022-10-04T23:20:08.563Z,20.33
2022-10-04T23:22:37.620Z,20.97
2022-10-04T23:25:15.639Z,20.90
2022-10-04T23:27:44.285Z,18.00
2022-10-04T23:30:17.210Z,19.17
2022-10-04T23:32:48.364Z,19.20
2022-10-04T23:35:24.634Z,20.83
2022-10-04T23:37:53.890Z,20.43
2022-10-04T23:40:25.465Z,18.33
2022-10-04T23:42:57.320Z,19.10
2022-10-04T23:45:26.994Z,17.40
2022-10-04T23:47:57.969Z,16.83
2022-10-04T23:50:35.317Z,23.83
2022-10-04T23:53:07.334Z,17.27
2022-10-04T23:55:38.717Z,16.13
2022-10-04T23:58:35.234Z,15.70
